Time;durP1;ratioP1;P1;durP2;ratioP2;P2;SDS_P1;SDS_P2;PMS_P1;PMS_P2;Temp;Humidity;BMP_temperature;BMP_pressure;BME280_temperature;BME280_humidity;BME280_pressure;Samples;Min_cycle;Max_cycle;Signal;HPM_P1;HPM_P2
2022/08/02 00:01:53;;;;;;;0.50;0.50;;;12.10;99.90;;;;;;5054489;28;20247;-83
2022/08/02 00:04:19;;;;;;;0.50;0.50;;;12.10;99.90;;;;;;5053291;28;20209;-83
2022/08/02 00:06:45;;;;;;;0.50;0.50;;;12.10;99.90;;;;;;5053778;28;20197;-83
2022/08/02 00:09:13;;;;;;;0.50;0.50;;;12.10;99.90;;;;;;5055138;28;20243;-83
2022/08/02 00:11:39;;;;;;;0.68;0.68;;;12.00;99.90;;;;;;5053789;28;20660;-83
2022/08/02 00:14:05;;;;;;;0.50;0.50;;;12.10;99.90;;;;;;5053673;28;20277;-83
2022/08/02 00:16:31;;;;;;;0.40;0.40;;;12.00;99.90;;;;;;5053853;28;20197;-83
2022/08/02 00:18:56;;;;;;;0.70;0.70;;;12.00;99.90;;;;;;5053757;28;20201;-84
2022/08/02 00:21:22;;;;;;;0.40;0.40;;;12.00;99.90;;;;;;5055049;28;20285;-84
2022/08/02 00:23:48;;;;;;;0.47;0.47;;;12.00;99.90;;;;;;5053590;28;20229;-83
2022/08/02 00:26:13;;;;;;;0.47;0.47;;;11.90;99.90;;;;;;5052719;28;20291;-84
2022/08/02 00:28:39;;;;;;;0.50;0.50;;;11.90;99.90;;;;;;5054374;28;20259;-84
2022/08/02 00:31:05;;;;;;;0.60;0.60;;;11.90;99.90;;;;;;5054620;28;20205;-84
2022/08/02 00:33:30;;;;;;;0.57;0.57;;;11.80;99.90;;;;;;5053405;28;20204;-85
2022/08/02 00:35:56;;;;;;;0.40;0.40;;;11.70;99.90;;;;;;5053734;28;20198;-83
2022/08/02 00:38:22;;;;;;;0.50;0.50;;;11.70;99.90;;;;;;5070472;28;20198;-85
2022/08/02 00:40:49;;;;;;;0.40;0.40;;;11.70;99.90;;;;;;5053832;28;20205;-84
2022/08/02 00:43:15;;;;;;;0.50;0.50;;;11.60;99.90;;;;;;5053491;28;20225;-84
2022/08/02 00:45:42;;;;;;;0.50;0.50;;;11.50;99.90;;;;;;5053189;28;20575;-84
2022/08/02 00:48:10;;;;;;;0.40;0.40;;;11.40;99.90;;;;;;5054317;28;20194;-84
2022/08/02 00:50:37;;;;;;;0.50;0.50;;;11.40;99.90;;;;;;5053450;28;20209;-84
2022/08/02 00:53:03;;;;;;;0.47;0.47;;;11.30;99.90;;;;;;5053889;28;20198;-84
2022/08/02 00:55:29;;;;;;;0.60;0.60;;;11.30;99.90;;;;;;5052760;28;20197;-84
2022/08/02 00:57:55;;;;;;;0.40;0.40;;;11.20;99.90;;;;;;5052903;28;20782;-84
2022/08/02 01:00:21;;;;;;;1.27;1.00;;;11.20;99.90;;;;;;5052919;28;20206;-82
2022/08/02 01:02:47;;;;;;;0.60;0.60;;;11.10;99.90;;;;;;5049510;28;20560;-83
2022/08/02 01:05:14;;;;;;;0.50;0.50;;;11.10;99.90;;;;;;5032036;28;20666;-83
2022/08/02 01:07:40;;;;;;;0.50;0.50;;;11.10;99.90;;;;;;5032253;28;20673;-82
2022/08/02 01:10:07;;;;;;;0.50;0.50;;;11.20;99.90;;;;;;5034062;28;20201;-82
2022/08/02 01:12:33;;;;;;;0.40;0.40;;;11.10;99.90;;;;;;5032617;28;20194;-82
2022/08/02 01:15:05;;;;;;;0.43;0.43;;;11.10;99.90;;;;;;5032669;28;20281;-82
2022/08/02 01:17:56;;;;;;;0.50;0.50;;;11.10;99.90;;;;;;5051934;28;20201;-83
2022/08/02 01:20:47;;;;;;;0.50;0.50;;;11.00;99.90;;;;;;5053348;28;20276;-82
2022/08/02 01:23:44;;;;;;;0.60;0.60;;;10.90;99.90;;;;;;5052577;28;20197;-82
2022/08/02 01:26:40;;;;;;;0.50;0.50;;;10.90;99.90;;;;;;5052625;28;20633;-82
2022/08/02 01:29:16;;;;;;;0.50;0.50;;;10.90;99.90;;;;;;5052439;28;20198;-81
2022/08/02 01:31:58;;;;;;;0.50;0.50;;;10.80;99.90;;;;;;5053379;28;20564;-80
2022/08/02 01:34:36;;;;;;;0.73;0.73;;;10.80;99.90;;;;;;5050127;28;20186;-83
2022/08/02 01:37:19;;;;;;;0.70;0.70;;;10.70;99.90;;;;;;5032118;28;20214;-82
2022/08/02 01:39:47;;;;;;;0.50;0.50;;;10.60;99.90;;;;;;5047875;28;20209;-82
2022/08/02 01:42:14;;;;;;;0.50;0.50;;;10.70;99.90;;;;;;5051754;28;20207;-83
2022/08/02 01:44:42;;;;;;;0.57;0.57;;;10.70;99.90;;;;;;5051905;28;20209;-82
2022/08/02 01:47:16;;;;;;;0.60;0.60;;;10.80;99.90;;;;;;5051282;28;20193;-82
2022/08/02 01:49:46;;;;;;;0.63;0.63;;;10.70;99.90;;;;;;5052230;28;20209;-83
2022/08/02 01:52:24;;;;;;;0.50;0.50;;;10.70;99.90;;;;;;5053011;28;20283;-82
2022/08/02 01:55:05;;;;;;;0.50;0.50;;;10.70;99.90;;;;;;5053037;28;20269;-82
2022/08/02 01:57:54;;;;;;;0.57;0.57;;;10.70;99.90;;;;;;5051047;28;20197;-82
2022/08/02 02:00:24;;;;;;;0.50;0.50;;;10.70;99.90;;;;;;5051630;28;20206;-82
2022/08/02 02:02:53;;;;;;;0.60;0.60;;;10.60;99.90;;;;;;5030973;28;20203;-82
2022/08/02 02:05:21;;;;;;;0.50;0.50;;;10.70;99.90;;;;;;5031620;28;20206;-82
2022/08/02 02:07:50;;;;;;;0.77;0.77;;;10.70;99.90;;;;;;5031658;28;20198;-82
2022/08/02 02:10:21;;;;;;;0.50;0.50;;;10.80;99.90;;;;;;5031591;28;20206;-82
2022/08/02 02:12:50;;;;;;;0.70;0.70;;;10.70;99.90;;;;;;5041841;28;20190;-81
2022/08/02 02:15:16;;;;;;;0.50;0.50;;;10.80;99.90;;;;;;5051121;28;20194;-80
2022/08/02 02:17:46;;;;;;;0.50;0.50;;;10.80;99.90;;;;;;5052835;28;20189;-80
2022/08/02 02:20:14;;;;;;;0.60;0.60;;;10.80;99.90;;;;;;5051397;28;20201;-81
2022/08/02 02:22:41;;;;;;;0.50;0.50;;;10.90;99.90;;;;;;5051161;28;20224;-82
2022/08/02 02:25:11;;;;;;;0.50;0.50;;;10.90;99.90;;;;;;5051446;28;20206;-79
2022/08/02 02:27:42;;;;;;;0.60;0.60;;;10.90;99.90;;;;;;5051172;28;20250;-82
2022/08/02 02:30:08;;;;;;;0.65;0.65;;;10.90;99.90;;;;;;5051095;28;20216;-83
2022/08/02 02:32:35;;;;;;;0.50;0.50;;;10.90;99.90;;;;;;5047619;28;20205;-80
2022/08/02 02:35:03;;;;;;;0.50;0.50;;;10.90;99.90;;;;;;5067657;28;20201;-80
2022/08/02 02:37:31;;;;;;;0.65;0.65;;;10.90;99.90;;;;;;5051088;28;20189;-82
2022/08/02 02:39:57;;;;;;;0.50;0.50;;;10.90;99.90;;;;;;5051217;28;20628;-83
2022/08/02 02:42:31;;;;;;;0.50;0.50;;;10.90;99.90;;;;;;5050819;28;20709;-80
2022/08/02 02:44:58;;;;;;;0.50;0.50;;;10.80;99.90;;;;;;5050975;28;20201;-80
2022/08/02 02:47:27;;;;;;;0.60;0.60;;;10.80;99.90;;;;;;5049990;28;20194;-86
2022/08/02 02:49:53;;;;;;;0.50;0.50;;;10.70;99.90;;;;;;5052883;28;20213;-80
2022/08/02 02:52:19;;;;;;;0.60;0.60;;;10.60;99.90;;;;;;5054878;28;20778;-80
2022/08/02 02:54:48;;;;;;;0.60;0.60;;;10.60;99.90;;;;;;5055458;28;20279;-83
2022/08/02 02:57:14;;;;;;;0.75;0.75;;;10.60;99.90;;;;;;5055053;28;20216;-80
2022/08/02 02:59:43;;;;;;;0.50;0.50;;;10.60;99.90;;;;;;5056021;28;20563;-80
2022/08/02 03:02:10;;;;;;;0.50;0.50;;;10.60;99.90;;;;;;5055446;28;20968;-80
2022/08/02 03:04:39;;;;;;;0.55;0.55;;;10.50;99.90;;;;;;5056275;28;20245;-80
2022/08/02 03:07:05;;;;;;;0.52;0.52;;;10.40;99.90;;;;;;5055030;28;20610;-80
2022/08/02 03:09:31;;;;;;;0.50;0.50;;;10.40;99.90;;;;;;5051267;28;20202;-81
2022/08/02 03:12:10;;;;;;;0.50;0.50;;;10.30;99.90;;;;;;5036050;28;20248;-82
2022/08/02 03:14:42;;;;;;;0.60;0.60;;;10.30;99.90;;;;;;5034527;28;20190;-80
2022/08/02 03:17:07;;;;;;;0.50;0.50;;;10.30;99.90;;;;;;5036150;28;20194;-83
2022/08/02 03:19:33;;;;;;;0.50;0.50;;;10.20;99.90;;;;;;5034606;28;20233;-80
2022/08/02 03:21:59;;;;;;;1.42;0.75;;;10.20;99.90;;;;;;5034821;28;20228;-80
2022/08/02 03:24:24;;;;;;;0.60;0.60;;;10.20;99.90;;;;;;5035660;28;20723;-81
2022/08/02 03:26:50;;;;;;;0.55;0.55;;;10.20;99.90;;;;;;5034095;28;20220;-80
2022/08/02 03:29:16;;;;;;;0.60;0.60;;;10.10;99.90;;;;;;5034501;28;20677;-83
2022/08/02 03:31:45;;;;;;;0.60;0.60;;;10.10;99.90;;;;;;5046927;28;20213;-80
2022/08/02 03:34:11;;;;;;;0.60;0.60;;;10.10;99.90;;;;;;5054237;28;20248;-81
2022/08/02 03:36:39;;;;;;;0.52;0.52;;;10.10;99.90;;;;;;5055704;28;20224;-80
2022/08/02 03:39:06;;;;;;;0.50;0.50;;;10.10;99.90;;;;;;5071404;28;20658;-80
2022/08/02 03:41:33;;;;;;;0.60;0.60;;;10.10;99.90;;;;;;5055547;28;20197;-81
2022/08/02 03:44:09;;;;;;;0.77;0.77;;;10.00;99.90;;;;;;5070739;28;20363;-81
2022/08/02 03:46:38;;;;;;;0.60;0.60;;;10.00;99.90;;;;;;5071029;28;20601;-81
2022/08/02 03:49:07;;;;;;;0.50;0.50;;;10.00;99.90;;;;;;5070846;28;20197;-81
2022/08/02 03:51:36;;;;;;;0.60;0.60;;;10.00;99.90;;;;;;5070621;28;20672;-81
2022/08/02 03:54:02;;;;;;;0.50;0.50;;;10.00;99.90;;;;;;5071419;28;20197;-81
2022/08/02 03:56:29;;;;;;;0.50;0.50;;;10.00;99.90;;;;;;5071056;28;20559;-80
2022/08/02 03:59:09;;;;;;;0.50;0.50;;;10.10;99.90;;;;;;5070448;28;20197;-81
2022/08/02 04:01:35;;;;;;;0.50;0.50;;;10.10;99.90;;;;;;5068840;28;20209;-81
2022/08/02 04:04:01;;;;;;;0.60;0.60;;;10.20;99.90;;;;;;5070485;28;20206;-80
2022/08/02 04:06:27;;;;;;;0.50;0.50;;;10.30;99.90;;;;;;5070232;28;20202;-81
2022/08/02 04:08:52;;;;;;;0.60;0.60;;;10.40;99.90;;;;;;5053523;28;20229;-81
2022/08/02 04:11:33;;;;;;;0.60;0.60;;;10.50;99.90;;;;;;5054098;28;20209;-82
2022/08/02 04:14:02;;;;;;;0.60;0.60;;;10.60;99.90;;;;;;5052963;28;20193;-80
2022/08/02 04:16:39;;;;;;;0.70;0.70;;;10.70;99.90;;;;;;5053145;28;20251;-81
2022/08/02 04:19:09;;;;;;;0.52;0.52;;;10.80;99.90;;;;;;5053477;28;20727;-81
2022/08/02 04:21:39;;;;;;;0.60;0.60;;;10.80;99.90;;;;;;5053248;28;20680;-80
2022/08/02 04:24:08;;;;;;;0.70;0.70;;;10.90;99.90;;;;;;5049862;28;20229;-80
2022/08/02 04:26:36;;;;;;;0.50;0.50;;;10.80;99.90;;;;;;5033326;28;20288;-81
2022/08/02 04:29:02;;;;;;;0.50;0.50;;;10.80;99.90;;;;;;5053178;28;20201;-80
2022/08/02 04:31:28;;;;;;;0.50;0.50;;;10.90;99.90;;;;;;5054388;28;20248;-81
2022/08/02 04:33:54;;;;;;;0.50;0.50;;;11.10;99.90;;;;;;5053401;28;20220;-81
2022/08/02 04:36:21;;;;;;;0.50;0.50;;;11.30;99.90;;;;;;5035082;28;20256;-81
2022/08/02 04:38:48;;;;;;;0.60;0.60;;;11.50;99.90;;;;;;5033334;28;20206;-81
2022/08/02 04:41:14;;;;;;;6.32;1.23;;;11.60;99.90;;;;;;5033331;28;20340;-81
2022/08/02 04:43:40;;;;;;;0.60;0.60;;;11.80;99.90;;;;;;5033033;28;20312;-81
2022/08/02 04:46:06;;;;;;;0.50;0.50;;;12.00;99.90;;;;;;5033476;28;20609;-81
2022/08/02 04:48:32;;;;;;;0.60;0.60;;;12.20;99.90;;;;;;5051362;28;20201;-81
2022/08/02 04:50:58;;;;;;;0.50;0.50;;;12.30;99.90;;;;;;5052945;28;20244;-80
2022/08/02 04:53:23;;;;;;;0.50;0.50;;;12.40;99.90;;;;;;5053352;28;20193;-80
2022/08/02 04:55:49;;;;;;;0.50;0.50;;;12.50;99.90;;;;;;5052921;28;20198;-80
2022/08/02 04:58:15;;;;;;;0.60;0.60;;;12.60;99.90;;;;;;5053010;28;20280;-81
2022/08/02 05:00:41;;;;;;;0.50;0.50;;;12.70;99.90;;;;;;5052326;28;20233;-80
2022/08/02 05:03:07;;;;;;;0.65;0.65;;;12.70;99.90;;;;;;5054088;28;20207;-80
2022/08/02 05:05:33;;;;;;;1.63;0.82;;;12.80;99.90;;;;;;5052713;28;20259;-80
2022/08/02 05:07:59;;;;;;;0.50;0.50;;;12.80;99.90;;;;;;5052640;28;20202;-81
2022/08/02 05:10:24;;;;;;;0.50;0.50;;;12.80;99.90;;;;;;5052608;28;20874;-80
2022/08/02 05:12:50;;;;;;;0.45;0.45;;;12.80;99.90;;;;;;5053605;28;20782;-80
2022/08/02 05:15:17;;;;;;;0.47;0.47;;;12.70;99.90;;;;;;5052344;28;20217;-82
2022/08/02 05:17:44;;;;;;;0.40;0.40;;;12.60;99.90;;;;;;5052433;28;20200;-81
2022/08/02 05:20:12;;;;;;;0.50;0.50;;;12.60;99.90;;;;;;5061906;28;20255;-81
2022/08/02 05:22:38;;;;;;;0.50;0.50;;;12.60;99.90;;;;;;5071407;28;20257;-81
2022/08/02 05:25:05;;;;;;;0.50;0.50;;;12.70;99.90;;;;;;5052959;28;20689;-80
2022/08/02 05:27:32;;;;;;;0.60;0.60;;;13.00;99.90;;;;;;5048064;28;20232;-81
2022/08/02 05:29:58;;;;;;;0.65;0.65;;;13.20;99.90;;;;;;5031294;28;20210;-81
2022/08/02 05:32:25;;;;;;;0.40;0.40;;;13.20;99.90;;;;;;5031793;28;20194;-80
2022/08/02 05:34:51;;;;;;;0.68;0.68;;;13.30;99.90;;;;;;5033254;28;20273;-80
2022/08/02 05:37:17;;;;;;;0.68;0.68;;;13.20;99.90;;;;;;5032143;28;20277;-81
2022/08/02 05:39:43;;;;;;;0.63;0.63;;;13.20;99.90;;;;;;5031994;28;20198;-79
2022/08/02 05:42:10;;;;;;;0.55;0.55;;;13.30;99.90;;;;;;5031673;28;20205;-80
2022/08/02 05:44:35;;;;;;;0.45;0.45;;;13.40;99.90;;;;;;5048383;28;20662;-80
2022/08/02 05:47:01;;;;;;;0.40;0.40;;;13.50;99.90;;;;;;5032030;28;20281;-80
2022/08/02 05:49:27;;;;;;;0.50;0.50;;;13.50;99.90;;;;;;5032819;28;20197;-80
2022/08/02 05:52:09;;;;;;;0.50;0.50;;;13.60;99.90;;;;;;5031822;28;20288;-80
2022/08/02 05:54:38;;;;;;;0.50;0.50;;;13.70;99.90;;;;;;5048403;28;20222;-81
2022/08/02 05:57:34;;;;;;;0.40;0.40;;;13.80;99.90;;;;;;5035345;28;20382;-81
2022/08/02 06:00:08;;;;;;;0.40;0.40;;;13.70;99.90;;;;;;5044197;28;20677;-80
2022/08/02 06:02:43;;;;;;;0.50;0.50;;;13.90;99.90;;;;;;5052249;28;20197;-80
2022/08/02 06:05:19;;;;;;;0.45;0.45;;;14.10;99.90;;;;;;5051437;28;20201;-80
2022/08/02 06:07:47;;;;;;;0.40;0.40;;;14.20;99.90;;;;;;5051644;28;20205;-80
2022/08/02 06:10:14;;;;;;;0.40;0.40;;;14.30;99.90;;;;;;5052615;28;20308;-81
2022/08/02 06:12:49;;;;;;;0.30;0.30;;;14.20;99.90;;;;;;5051093;28;20676;-80
2022/08/02 06:15:16;;;;;;;0.40;0.40;;;14.30;99.90;;;;;;5051560;28;20193;-81
2022/08/02 06:17:43;;;;;;;0.45;0.45;;;14.20;99.90;;;;;;5047852;28;20202;-81
2022/08/02 06:20:13;;;;;;;0.40;0.40;;;14.40;99.90;;;;;;5032650;28;20193;-80
2022/08/02 06:22:43;;;;;;;0.40;0.40;;;14.60;99.90;;;;;;5038377;28;20555;-81
2022/08/02 06:25:13;;;;;;;0.40;0.40;;;14.70;99.90;;;;;;5049725;28;20279;-81
2022/08/02 06:27:40;;;;;;;0.40;0.40;;;14.70;99.90;;;;;;5050641;28;20762;-81
2022/08/02 06:30:07;;;;;;;0.30;0.30;;;14.80;99.90;;;;;;5051083;28;20206;-81
2022/08/02 06:32:33;;;;;;;0.50;0.50;;;14.90;99.90;;;;;;5052190;28;20186;-81
2022/08/02 06:34:59;;;;;;;0.30;0.30;;;14.90;99.90;;;;;;5051198;28;20200;-80
2022/08/02 06:37:43;;;;;;;0.30;0.30;;;15.10;99.90;;;;;;5051143;28;20197;-81
2022/08/02 06:40:17;;;;;;;0.60;0.60;;;15.30;99.90;;;;;;5051077;28;20197;-81
2022/08/02 06:42:46;;;;;;;0.40;0.40;;;15.30;99.90;;;;;;5050844;28;20232;-81
2022/08/02 06:45:12;;;;;;;0.57;0.57;;;15.60;99.90;;;;;;5051107;28;20247;-81
2022/08/02 06:47:38;;;;;;;0.40;0.40;;;15.60;99.90;;;;;;5050974;28;20205;-81
2022/08/02 06:50:04;;;;;;;0.40;0.40;;;15.80;99.90;;;;;;5050906;28;20244;-81
2022/08/02 06:52:30;;;;;;;0.35;0.35;;;15.90;99.90;;;;;;5051816;28;20185;-80
2022/08/02 06:55:00;;;;;;;0.30;0.30;;;16.00;99.90;;;;;;5047493;28;20194;-81
2022/08/02 06:57:27;;;;;;;0.40;0.40;;;16.00;99.90;;;;;;5031027;28;20247;-81
2022/08/02 06:59:54;;;;;;;0.40;0.40;;;16.00;99.90;;;;;;5030840;28;20681;-81
2022/08/02 07:02:20;;;;;;;0.40;0.40;;;16.10;99.90;;;;;;5030613;28;20206;-82
2022/08/02 07:04:45;;;;;;;0.40;0.40;;;16.20;99.90;;;;;;5031057;28;20612;-80
2022/08/02 07:07:11;;;;;;;0.47;0.47;;;16.20;99.90;;;;;;5047507;28;20300;-80
2022/08/02 07:09:37;;;;;;;0.40;0.40;;;16.20;99.90;;;;;;5031293;28;20288;-81
2022/08/02 07:12:03;;;;;;;0.40;0.40;;;16.10;99.90;;;;;;5034267;28;20280;-80
2022/08/02 07:14:29;;;;;;;0.40;0.40;;;16.30;99.90;;;;;;5050367;28;20201;-81
2022/08/02 07:16:54;;;;;;;0.32;0.32;;;16.60;99.90;;;;;;5050690;28;20209;-82
2022/08/02 07:19:20;;;;;;;0.30;0.30;;;16.80;99.90;;;;;;5049134;28;20198;-81
2022/08/02 07:21:46;;;;;;;0.45;0.45;;;16.90;99.90;;;;;;5050779;28;20661;-81
2022/08/02 07:24:11;;;;;;;0.30;0.30;;;17.10;99.90;;;;;;5050355;28;20205;-81
2022/08/02 07:26:37;;;;;;;0.40;0.40;;;17.20;99.90;;;;;;5051544;28;20228;-81
2022/08/02 07:29:03;;;;;;;0.38;0.38;;;17.10;99.90;;;;;;5050468;28;20216;-81
2022/08/02 07:31:29;;;;;;;1.80;0.65;;;17.10;99.90;;;;;;5050170;28;20675;-81
2022/08/02 07:33:54;;;;;;;0.30;0.30;;;17.00;99.90;;;;;;5050324;28;20205;-82
2022/08/02 07:36:20;;;;;;;0.30;0.30;;;17.00;99.90;;;;;;5051698;28;20193;-81
2022/08/02 07:38:46;;;;;;;0.30;0.30;;;17.20;99.90;;;;;;5054500;28;20205;-80
2022/08/02 07:41:12;;;;;;;0.30;0.30;;;17.10;99.90;;;;;;5053167;28;20201;-81
2022/08/02 07:43:38;;;;;;;0.30;0.30;;;17.00;99.90;;;;;;5054766;28;20228;-80
2022/08/02 07:46:03;;;;;;;0.50;0.50;;;17.00;99.90;;;;;;5053947;28;20564;-81
2022/08/02 07:48:29;;;;;;;0.32;0.32;;;16.90;99.90;;;;;;5053686;28;20197;-80
2022/08/02 07:50:55;;;;;;;0.40;0.40;;;17.10;99.90;;;;;;5055464;28;20636;-81
2022/08/02 07:53:21;;;;;;;0.30;0.30;;;17.40;99.90;;;;;;5054750;28;20190;-81
2022/08/02 07:55:50;;;;;;;0.57;0.38;;;17.70;99.90;;;;;;5053156;28;20198;-81
2022/08/02 07:58:15;;;;;;;5.15;1.00;;;18.00;99.90;;;;;;5053375;28;20289;-81
2022/08/02 08:00:43;;;;;;;0.30;0.30;;;18.00;99.90;;;;;;5053190;28;20281;-81
2022/08/02 08:03:09;;;;;;;0.20;0.20;;;17.90;99.90;;;;;;5053687;28;20205;-82
2022/08/02 08:05:35;;;;;;;1.75;0.40;;;18.00;99.90;;;;;;5053573;28;20300;-81
2022/08/02 08:08:00;;;;;;;0.30;0.30;;;18.10;99.90;;;;;;5054770;28;20205;-81
2022/08/02 08:10:26;;;;;;;0.30;0.30;;;17.90;99.90;;;;;;5054441;28;20201;-81
2022/08/02 08:12:54;;;;;;;2.17;0.68;;;17.60;99.90;;;;;;5053238;28;20276;-81
2022/08/02 08:15:20;;;;;;;0.40;0.40;;;17.60;99.90;;;;;;5052791;28;20194;-82
2022/08/02 08:17:46;;;;;;;0.30;0.30;;;17.60;99.90;;;;;;5052761;28;20201;-81
2022/08/02 08:20:12;;;;;;;0.40;0.40;;;17.80;99.90;;;;;;5054312;28;20201;-81
2022/08/02 08:22:37;;;;;;;0.40;0.40;;;17.90;99.90;;;;;;5052821;28;20595;-81
2022/08/02 08:25:04;;;;;;;0.45;0.45;;;18.10;99.90;;;;;;5054434;28;20189;-81
2022/08/02 08:27:29;;;;;;;0.32;0.32;;;18.40;99.90;;;;;;5052861;28;20233;-81
2022/08/02 08:29:55;;;;;;;0.40;0.40;;;18.70;99.90;;;;;;5069398;28;20703;-81
2022/08/02 08:32:21;;;;;;;0.20;0.20;;;19.00;99.90;;;;;;5052403;28;20197;-82
2022/08/02 08:34:47;;;;;;;0.30;0.30;;;19.40;99.90;;;;;;5062882;28;20244;-81
2022/08/02 08:37:15;;;;;;;0.40;0.40;;;19.50;99.90;;;;;;5034262;28;20725;-81
2022/08/02 08:39:40;;;;;;;0.60;0.45;;;19.40;99.90;;;;;;5049485;28;20206;-81
2022/08/02 08:42:07;;;;;;;0.20;0.20;;;19.40;99.90;;;;;;5049259;28;20190;-82
2022/08/02 08:44:36;;;;;;;0.30;0.30;;;19.20;99.90;;;;;;5033564;28;20233;-81
2022/08/02 08:47:03;;;;;;;0.20;0.20;;;19.00;99.90;;;;;;5063208;28;20723;-81
2022/08/02 08:49:40;;;;;;;0.43;0.35;;;18.90;99.90;;;;;;5052100;28;20201;-80
2022/08/02 08:52:06;;;;;;;0.30;0.30;;;18.90;99.90;;;;;;5053603;28;20209;-79
2022/08/02 08:54:34;;;;;;;0.38;0.30;;;18.80;99.90;;;;;;5052855;28;20667;-81
2022/08/02 08:57:03;;;;;;;0.75;0.70;;;18.80;99.90;;;;;;5053589;28;20181;-81
2022/08/02 08:59:29;;;;;;;0.40;0.40;;;18.60;99.90;;;;;;5053312;28;20248;-81
2022/08/02 09:01:55;;;;;;;0.20;0.20;;;18.50;99.90;;;;;;5051967;28;20198;-81
2022/08/02 09:04:21;;;;;;;0.20;0.20;;;18.40;99.90;;;;;;5052366;28;20703;-82
2022/08/02 09:06:47;;;;;;;0.30;0.30;;;18.40;99.90;;;;;;5053437;28;20202;-81
2022/08/02 09:09:13;;;;;;;1.58;0.63;;;18.50;99.90;;;;;;5051838;28;20238;-82
2022/08/02 09:11:39;;;;;;;0.60;0.50;;;18.60;99.90;;;;;;5052691;28;20206;-81
2022/08/02 09:14:04;;;;;;;0.40;0.40;;;18.60;99.90;;;;;;5052061;28;20198;-81
2022/08/02 09:16:40;;;;;;;0.40;0.40;;;18.60;99.90;;;;;;5051317;28;20209;-81
2022/08/02 09:19:22;;;;;;;0.50;0.50;;;18.70;99.90;;;;;;5052037;28;20220;-81
2022/08/02 09:21:50;;;;;;;0.30;0.30;;;18.90;99.90;;;;;;5051559;28;20193;-81
2022/08/02 09:24:21;;;;;;;0.55;0.50;;;19.00;99.90;;;;;;5051770;28;20197;-81
2022/08/02 09:26:48;;;;;;;0.40;0.40;;;19.10;99.90;;;;;;5051371;28;20197;-81
2022/08/02 09:29:16;;;;;;;0.30;0.30;;;19.30;99.90;;;;;;5051518;28;20258;-82
2022/08/02 09:31:42;;;;;;;0.35;0.35;;;19.50;99.90;;;;;;5051390;28;20267;-81
2022/08/02 09:34:08;;;;;;;0.40;0.40;;;19.60;99.90;;;;;;5051355;28;20205;-80
2022/08/02 09:36:44;;;;;;;0.30;0.30;;;19.70;99.90;;;;;;5067606;28;20652;-81
2022/08/02 09:39:12;;;;;;;1.08;0.85;;;19.70;99.90;;;;;;5068060;28;20667;-81
2022/08/02 09:41:40;;;;;;;0.52;0.47;;;19.50;99.90;;;;;;5068136;28;20228;-81
2022/08/02 09:44:08;;;;;;;0.28;0.28;;;19.40;99.90;;;;;;5052404;28;20600;-81
2022/08/02 09:46:37;;;;;;;0.43;0.43;;;19.60;99.90;;;;;;5051061;28;20828;-81
2022/08/02 09:49:07;;;;;;;0.30;0.30;;;19.60;99.90;;;;;;5052319;28;20209;-81
2022/08/02 09:51:38;;;;;;;6.32;0.75;;;19.80;99.90;;;;;;5050948;28;20214;-86
2022/08/02 09:54:06;;;;;;;0.40;0.40;;;19.70;99.90;;;;;;5050939;28;20243;-82
2022/08/02 09:56:45;;;;;;;0.32;0.32;;;19.70;99.90;;;;;;5050876;28;20241;-82
2022/08/02 09:59:12;;;;;;;0.35;0.35;;;19.80;99.90;;;;;;5068130;28;20659;-82
2022/08/02 10:01:39;;;;;;;0.43;0.43;;;19.80;99.90;;;;;;5067546;28;20355;-82
2022/08/02 10:04:06;;;;;;;0.40;0.40;;;19.80;99.90;;;;;;5050879;28;20688;-81
2022/08/02 10:06:33;;;;;;;0.98;0.88;;;19.70;99.90;;;;;;5051717;28;20229;-81
2022/08/02 10:08:59;;;;;;;1.05;0.40;;;19.90;99.90;;;;;;5047579;28;20197;-81
2022/08/02 10:11:27;;;;;;;4.55;0.85;;;19.90;99.90;;;;;;5031830;28;20217;-81
2022/08/02 10:13:54;;;;;;;0.50;0.50;;;20.10;99.90;;;;;;5049946;28;20216;-81
2022/08/02 10:16:22;;;;;;;0.32;0.32;;;20.00;99.90;;;;;;5050195;28;20198;-82
2022/08/02 10:18:50;;;;;;;0.35;0.35;;;20.10;99.90;;;;;;5051831;28;20186;-82
2022/08/02 10:21:29;;;;;;;0.30;0.30;;;20.50;99.90;;;;;;5050384;28;20204;-80
2022/08/02 10:24:20;;;;;;;3.70;0.70;;;21.10;99.90;;;;;;5051627;28;20652;-81
2022/08/02 10:26:46;;;;;;;0.60;0.38;;;21.50;99.90;;;;;;5049823;28;20231;-82
2022/08/02 10:29:22;;;;;;;0.40;0.40;;;22.00;99.90;;;;;;5050489;28;20595;-82
2022/08/02 10:31:56;;;;;;;0.43;0.43;;;22.00;99.90;;;;;;5050472;28;20619;-84
2022/08/02 10:34:28;;;;;;;0.30;0.30;;;21.40;99.90;;;;;;5050607;28;20196;-79
2022/08/02 10:36:55;;;;;;;0.52;0.50;;;21.50;99.90;;;;;;5051331;28;20194;-80
2022/08/02 10:39:21;;;;;;;5.07;1.08;;;21.80;99.90;;;;;;5066483;28;20219;-79
2022/08/02 10:41:52;;;;;;;0.45;0.45;;;21.40;99.90;;;;;;5050547;28;20751;-81
2022/08/02 10:44:23;;;;;;;5.15;2.03;;;21.60;99.90;;;;;;5049773;28;20750;-80
2022/08/02 10:46:49;;;;;;;1.98;0.77;;;21.70;99.90;;;;;;5051521;28;20193;-80
2022/08/02 10:49:21;;;;;;;4.47;1.45;;;21.60;99.90;;;;;;5050295;28;20585;-81
2022/08/02 10:51:59;;;;;;;0.47;0.40;;;21.70;99.90;;;;;;5051317;28;20614;-80
2022/08/02 10:54:27;;;;;;;0.35;0.35;;;21.50;99.90;;;;;;5049669;28;20186;-79
2022/08/02 10:56:55;;;;;;;0.30;0.30;;;21.30;99.90;;;;;;5052199;28;20244;-80
2022/08/02 10:59:34;;;;;;;1.45;0.40;;;21.40;99.90;;;;;;5071064;28;20281;-81
2022/08/02 11:02:03;;;;;;;1.20;0.70;;;21.10;99.90;;;;;;5069898;28;20562;-80
2022/08/02 11:04:52;;;;;;;0.45;0.45;;;21.40;99.90;;;;;;5055968;28;20238;-81
2022/08/02 11:07:36;;;;;;;1.48;0.90;;;22.00;99.90;;;;;;5029829;28;20293;-85
2022/08/02 11:10:33;;;;;;;0.55;0.55;;;22.20;99.90;;;;;;5048105;28;20257;-80
2022/08/02 11:13:06;;;;;;;0.60;0.60;;;22.40;99.90;;;;;;5054221;28;20675;-81
2022/08/02 11:16:01;;;;;;;0.75;0.55;;;22.10;99.90;;;;;;5054037;28;20657;-80
2022/08/02 11:18:49;;;;;;;0.20;0.20;;;22.00;99.90;;;;;;5053352;28;20185;-80
2022/08/02 11:21:31;;;;;;;1.77;0.82;;;21.70;99.90;;;;;;5054980;28;20190;-81
2022/08/02 11:24:27;;;;;;;0.43;0.40;;;21.30;99.90;;;;;;5053651;28;20207;-82
2022/08/02 11:26:54;;;;;;;0.65;0.63;;;21.20;99.90;;;;;;5055011;28;20189;-81
2022/08/02 11:29:20;;;;;;;0.65;0.60;;;21.10;99.90;;;;;;5053446;28;20206;-82
2022/08/02 11:31:47;;;;;;;1.30;0.43;;;21.70;99.90;;;;;;5053517;28;20593;-83
2022/08/02 11:34:14;;;;;;;2.35;0.82;;;22.30;99.90;;;;;;5053593;28;20522;-81
2022/08/02 11:36:48;;;;;;;2.83;1.27;;;23.20;99.90;;;;;;5053493;28;20569;-81
2022/08/02 11:39:22;;;;;;;0.32;0.32;;;23.50;99.90;;;;;;5070050;28;20280;-81
2022/08/02 11:41:56;;;;;;;0.40;0.40;;;23.80;99.90;;;;;;5070076;28;20236;-81
2022/08/02 11:44:26;;;;;;;0.30;0.30;;;23.20;99.90;;;;;;5053046;28;20623;-82
2022/08/02 11:47:00;;;;;;;1.88;0.65;;;23.20;99.90;;;;;;5053418;28;20748;-81
2022/08/02 11:49:27;;;;;;;12.52;0.50;;;23.70;99.90;;;;;;5053257;28;20197;-79
2022/08/02 11:51:58;;;;;;;0.35;0.35;;;23.80;99.90;;;;;;5054295;28;20197;-79
2022/08/02 11:54:29;;;;;;;0.30;0.30;;;23.50;99.90;;;;;;5066808;28;20193;-79
2022/08/02 11:57:08;;;;;;;0.60;0.60;;;23.50;99.90;;;;;;5073095;28;20567;-80
2022/08/02 11:59:40;;;;;;;6.05;0.70;;;23.50;99.90;;;;;;5071475;28;20224;-80
2022/08/02 12:02:06;;;;;;;0.25;0.25;;;23.70;99.90;;;;;;5052920;28;20335;-80
2022/08/02 12:04:33;;;;;;;0.30;0.30;;;23.50;99.90;;;;;;5052651;28;20206;-79
2022/08/02 12:07:00;;;;;;;0.40;0.40;;;23.50;99.90;;;;;;5052870;28;20228;-79
2022/08/02 12:09:27;;;;;;;0.55;0.35;;;23.30;99.90;;;;;;5052745;28;20198;-79
2022/08/02 12:11:54;;;;;;;0.30;0.30;;;22.90;99.90;;;;;;5052698;28;20268;-79
2022/08/02 12:14:22;;;;;;;0.22;0.22;;;22.60;99.90;;;;;;5052596;28;20198;-80
2022/08/02 12:19:34;;;;;;;0.40;0.40;;;23.10;99.90;;;;;;5054229;28;20197;-80
2022/08/02 12:22:11;;;;;;;0.55;0.55;;;23.40;99.90;;;;;;5051510;28;20296;-79
2022/08/02 12:24:39;;;;;;;0.22;0.22;;;23.40;99.90;;;;;;5053369;28;20224;-79
2022/08/02 12:27:05;;;;;;;0.15;0.15;;;23.50;99.90;;;;;;5052375;28;20205;-80
2022/08/02 12:29:37;;;;;;;0.98;0.45;;;23.20;99.90;;;;;;5053572;28;20203;-79
2022/08/02 12:32:03;;;;;;;0.13;0.13;;;22.80;99.90;;;;;;5053308;28;20209;-80
2022/08/02 12:34:30;;;;;;;0.20;0.20;;;22.30;99.90;;;;;;5051934;28;20198;-80
2022/08/02 12:37:24;;;;;;;2.40;0.90;;;22.20;99.90;;;;;;5068931;28;20197;-80
2022/08/02 12:39:51;;;;;;;0.30;0.30;;;22.00;99.90;;;;;;5067306;28;20228;-80
2022/08/02 12:42:17;;;;;;;0.50;0.50;;;21.60;99.90;;;;;;5068853;28;20201;-80
2022/08/02 12:44:57;;;;;;;2.08;0.40;;;21.50;99.90;;;;;;5068724;28;20380;-79
2022/08/02 12:47:24;;;;;;;0.30;0.30;;;21.60;99.90;;;;;;5068613;28;20189;-80
2022/08/02 12:50:17;;;;;;;0.32;0.32;;;21.70;99.90;;;;;;5068406;28;20276;-80
2022/08/02 12:52:42;;;;;;;0.20;0.20;;;21.60;99.90;;;;;;5051825;28;20197;-79
2022/08/02 12:55:19;;;;;;;0.85;0.50;;;21.60;99.90;;;;;;5051842;28;20618;-79
2022/08/02 12:57:56;;;;;;;0.20;0.20;;;21.70;99.90;;;;;;5051739;28;20224;-79
2022/08/02 13:00:30;;;;;;;0.30;0.30;;;21.80;99.90;;;;;;5051411;28;20197;-79
2022/08/02 13:02:57;;;;;;;0.95;0.38;;;22.20;99.90;;;;;;5051726;28;20553;-80